createdAt,value
2023-02-09T00:00:41.072Z,60.20
2023-02-09T00:03:33.890Z,48.80
2023-02-09T00:06:12.862Z,55.90
2023-02-09T00:09:05.152Z,60.40
2023-02-09T00:12:15.223Z,61.90
2023-02-09T00:15:09.853Z,67.40
2023-02-09T00:18:02.173Z,74.30
2023-02-09T00:20:36.796Z,54.90
2023-02-09T00:23:32.212Z,61.60
2023-02-09T00:26:12.615Z,71.20
2023-02-09T00:29:05.267Z,49.70
2023-02-09T00:31:57.763Z,53.60
2023-02-09T00:34:50.394Z,62.80
2023-02-09T00:37:43.106Z,43.20
2023-02-09T00:40:35.718Z,64.20
2023-02-09T00:43:28.203Z,63.60
2023-02-09T00:46:20.484Z,72.00
2023-02-09T00:48:57.858Z,69.20
2023-02-09T00:51:50.121Z,72.40
2023-02-09T00:54:42.427Z,71.20
2023-02-09T00:57:23.863Z,65.50
2023-02-09T01:00:19.899Z,58.90
2023-02-09T01:03:12.874Z,51.90
2023-02-09T01:06:05.443Z,57.10
2023-02-09T01:08:57.926Z,60.00
2023-02-09T01:11:50.353Z,38.70
2023-02-09T01:14:43.261Z,63.80
2023-02-09T01:17:35.884Z,58.40
2023-02-09T01:20:28.984Z,50.90
2023-02-09T01:23:11.800Z,61.70
2023-02-09T01:26:08.881Z,65.60
2023-02-09T01:29:01.181Z,51.70
2023-02-09T01:31:54.092Z,49.30
2023-02-09T01:34:46.402Z,41.40
2023-02-09T01:37:39.143Z,57.30
2023-02-09T01:40:31.623Z,61.80
2023-02-09T01:43:23.903Z,53.00
2023-02-09T01:46:16.158Z,84.70
2023-02-09T01:48:57.860Z,77.70
2023-02-09T01:51:54.535Z,63.10
2023-02-09T01:54:50.882Z,57.50
2023-02-09T01:57:47.581Z,77.30
2023-02-09T02:00:39.967Z,62.50
2023-02-09T02:03:33.105Z,60.20
2023-02-09T02:06:25.651Z,57.80
2023-02-09T02:09:19.240Z,60.20
2023-02-09T02:12:11.851Z,47.30
2023-02-09T02:15:05.365Z,52.60
2023-02-09T02:18:12.091Z,42.50
2023-02-09T02:21:34.174Z,65.20
2023-02-09T02:24:51.134Z,53.00
2023-02-09T02:27:44.477Z,41.50
2023-02-09T02:30:51.797Z,52.60
2023-02-09T02:34:04.861Z,49.30
2023-02-09T02:37:10.656Z,52.00
2023-02-09T02:40:09.593Z,44.20
2023-02-09T02:43:10.398Z,47.40
2023-02-09T02:46:07.915Z,56.20
2023-02-09T02:48:48.080Z,48.30
2023-02-09T02:51:43.698Z,61.70
2023-02-09T02:54:42.311Z,56.40
2023-02-09T02:57:37.837Z,55.70
2023-02-09T03:00:34.681Z,68.60
2023-02-09T03:03:32.247Z,50.20
2023-02-09T03:06:20.356Z,41.40
2023-02-09T03:09:12.695Z,36.40
2023-02-09T03:12:14.708Z,38.40
2023-02-09T03:15:24.865Z,32.70
2023-02-09T03:18:33.083Z,57.80
2023-02-09T03:21:35.663Z,44.70
2023-02-09T03:24:37.010Z,56.70
2023-02-09T03:27:34.165Z,61.50
2023-02-09T03:30:27.136Z,43.90
2023-02-09T03:33:24.649Z,41.50
2023-02-09T03:36:20.645Z,48.00
2023-02-09T03:38:57.965Z,55.30
2023-02-09T03:41:41.601Z,67.20
2023-02-09T03:44:34.008Z,53.20
2023-02-09T03:47:26.320Z,53.20
2023-02-09T03:50:19.268Z,42.00
2023-02-09T03:53:11.644Z,68.20
2023-02-09T03:56:04.454Z,58.60
2023-02-09T03:58:56.847Z,49.00
2023-02-09T04:01:49.645Z,47.00
2023-02-09T04:04:41.995Z,31.60
2023-02-09T04:07:34.678Z,37.50
2023-02-09T04:10:26.921Z,48.20
2023-02-09T04:13:19.410Z,54.60
2023-02-09T04:16:11.906Z,54.20
2023-02-09T04:19:04.510Z,49.30
2023-02-09T04:21:47.114Z,60.00
2023-02-09T04:24:39.533Z,51.50
2023-02-09T04:27:31.805Z,61.00
2023-02-09T04:30:24.254Z,42.50
2023-02-09T04:33:16.432Z,55.90
2023-02-09T04:36:10.953Z,47.50
2023-02-09T04:39:03.104Z,53.70
2023-02-09T04:41:55.363Z,50.10
2023-02-09T04:44:47.654Z,49.30
2023-02-09T04:47:39.948Z,53.80
2023-02-09T04:50:32.228Z,35.10
2023-02-09T04:53:24.884Z,30.60
2023-02-09T04:56:17.900Z,44.80
2023-02-09T04:59:28.407Z,42.70
2023-02-09T05:02:21.120Z,60.90
2023-02-09T05:05:13.405Z,66.20
2023-02-09T05:08:05.741Z,51.30
2023-02-09T05:10:58.486Z,51.60
2023-02-09T05:13:50.670Z,52.80
2023-02-09T05:16:31.910Z,50.40
2023-02-09T05:19:24.122Z,56.70
2023-02-09T05:22:16.654Z,55.10
2023-02-09T05:25:09.307Z,64.30
2023-02-09T05:28:01.634Z,39.30
2023-02-09T05:30:54.709Z,36.40
2023-02-09T05:33:46.903Z,43.90
2023-02-09T05:36:39.067Z,52.70
2023-02-09T05:39:31.366Z,66.40
2023-02-09T05:42:23.872Z,54.70
2023-02-09T05:45:16.092Z,86.00
2023-02-09T05:48:08.714Z,93.70
2023-02-09T05:50:46.461Z,79.50
2023-02-09T05:53:38.756Z,82.20
2023-02-09T05:56:31.117Z,73.70
2023-02-09T05:59:23.340Z,52.60
2023-02-09T06:02:15.664Z,32.30
2023-02-09T06:05:08.702Z,50.80
2023-02-09T06:08:00.865Z,67.50
2023-02-09T06:10:53.075Z,86.80
2023-02-09T06:13:45.338Z,59.50
2023-02-09T06:16:37.544Z,60.50
2023-02-09T06:19:30.213Z,53.90
2023-02-09T06:22:13.553Z,54.70
2023-02-09T06:25:05.932Z,55.30
2023-02-09T06:27:58.084Z,63.40
2023-02-09T06:30:40.767Z,55.50
2023-02-09T06:33:33.279Z,58.70
2023-02-09T06:36:25.412Z,50.60
2023-02-09T06:39:17.516Z,31.80
2023-02-09T06:42:09.679Z,30.00
2023-02-09T06:45:01.844Z,31.70
2023-02-09T06:47:54.069Z,43.50
2023-02-09T06:50:47.424Z,57.00
2023-02-09T06:53:40.927Z,58.70
2023-02-09T06:56:33.127Z,38.80
2023-02-09T06:59:25.570Z,72.80
2023-02-09T07:02:17.756Z,79.40
2023-02-09T07:05:10.740Z,36.30
2023-02-09T07:08:04.054Z,47.30
2023-02-09T07:10:56.243Z,73.80
2023-02-09T07:13:48.449Z,69.30
2023-02-09T07:16:40.550Z,32.20
2023-02-09T07:19:33.050Z,43.50
2023-02-09T07:22:26.269Z,32.00
2023-02-09T07:25:18.525Z,17.70
2023-02-09T07:28:10.948Z,29.50
2023-02-09T07:30:55.556Z,23.30
2023-02-09T07:33:47.845Z,31.10
2023-02-09T07:36:25.475Z,32.90
2023-02-09T07:39:17.675Z,29.60
2023-02-09T07:42:10.112Z,26.00
2023-02-09T07:45:02.304Z,11.10
2023-02-09T07:47:54.451Z,27.50
2023-02-09T07:50:53.182Z,18.20
2023-02-09T07:53:28.060Z,18.40
2023-02-09T07:56:00.149Z,39.60
2023-02-09T07:58:32.596Z,43.40
2023-02-09T08:01:25.268Z,46.90
2023-02-09T08:04:17.429Z,43.90
2023-02-09T08:06:49.962Z,40.30
2023-02-09T08:09:24.773Z,43.90
2023-02-09T08:12:10.785Z,48.80
2023-02-09T08:15:03.379Z,48.60
2023-02-09T08:17:57.992Z,50.10
2023-02-09T08:20:51.564Z,47.30
2023-02-09T08:23:47.140Z,50.30
2023-02-09T08:26:39.717Z,52.30
2023-02-09T08:29:31.994Z,57.20
2023-02-09T08:32:06.826Z,55.80
2023-02-09T08:34:47.384Z,55.90
2023-02-09T08:37:39.508Z,61.80
2023-02-09T08:40:32.090Z,57.30
2023-02-09T08:43:24.170Z,61.70
2023-02-09T08:46:16.437Z,61.00
2023-02-09T08:48:54.774Z,60.80
2023-02-09T08:51:29.377Z,58.90
2023-02-09T08:54:21.452Z,57.60
2023-02-09T08:57:13.623Z,51.40
2023-02-09T08:59:55.754Z,66.80
2023-02-09T09:02:47.796Z,61.00
2023-02-09T09:05:40.360Z,69.60
2023-02-09T09:08:33.620Z,63.80
2023-02-09T09:11:13.354Z,63.40
2023-02-09T09:13:45.630Z,52.90
2023-02-09T09:16:37.916Z,50.60
2023-02-09T09:19:30.204Z,51.20
2023-02-09T09:22:11.192Z,53.20
2023-02-09T09:25:03.344Z,50.20
2023-02-09T09:27:51.886Z,50.90
2023-02-09T09:30:28.810Z,33.90
2023-02-09T09:33:12.203Z,48.80
2023-02-09T09:36:05.707Z,33.00
2023-02-09T09:38:54.177Z,21.30
2023-02-09T09:41:49.940Z,29.20
2023-02-09T09:44:36.175Z,31.60
2023-02-09T09:47:15.915Z,29.00
2023-02-09T09:50:14.165Z,21.90
2023-02-09T09:53:13.403Z,15.90
2023-02-09T09:55:59.367Z,16.30
2023-02-09T09:58:35.913Z,24.30
2023-02-09T10:01:18.834Z,17.70
2023-02-09T10:04:16.170Z,16.50
2023-02-09T10:07:19.583Z,17.00
2023-02-09T10:10:12.931Z,17.20
2023-02-09T10:13:09.706Z,16.60
2023-02-09T10:15:54.649Z,19.10
2023-02-09T10:18:50.106Z,15.70
2023-02-09T10:21:26.390Z,21.70
2023-02-09T10:24:24.762Z,13.40
2023-02-09T10:27:14.762Z,23.10
2023-02-09T10:30:28.011Z,15.50
2023-02-09T10:33:20.692Z,18.90
2023-02-09T10:35:59.001Z,15.80
2023-02-09T10:38:40.923Z,21.10
2023-02-09T10:41:35.020Z,20.00
2023-02-09T10:44:29.418Z,19.90
2023-02-09T10:47:31.929Z,17.90
2023-02-09T10:50:20.431Z,19.30
2023-02-09T10:53:22.860Z,11.40
2023-02-09T10:56:22.502Z,15.80
2023-02-09T10:59:18.570Z,16.30
2023-02-09T11:02:35.050Z,15.10
2023-02-09T11:05:33.725Z,19.50
2023-02-09T11:08:25.549Z,18.60
2023-02-09T11:11:27.728Z,21.70
2023-02-09T11:14:21.433Z,23.70
2023-02-09T11:17:16.771Z,19.10
2023-02-09T11:20:24.394Z,28.60
2023-02-09T11:23:40.006Z,26.40
2023-02-09T11:26:40.363Z,17.50
2023-02-09T11:29:25.514Z,29.20
2023-02-09T11:32:09.379Z,19.10
2023-02-09T11:35:00.310Z,26.00
2023-02-09T11:38:00.849Z,28.60
2023-02-09T11:40:42.389Z,22.20
2023-02-09T11:43:38.829Z,24.80
2023-02-09T11:46:32.954Z,24.40
2023-02-09T11:52:07.891Z,20.20
2023-02-09T11:54:49.002Z,24.70
2023-02-09T11:57:45.201Z,27.90
2023-02-09T12:00:54.841Z,31.80
2023-02-09T12:03:36.669Z,26.10
2023-02-09T12:06:35.847Z,32.30
2023-02-09T12:09:23.089Z,30.30
2023-02-09T12:12:13.645Z,31.30
2023-02-09T12:15:16.978Z,31.90
2023-02-09T12:18:13.193Z,31.00
2023-02-09T12:21:08.229Z,34.40
2023-02-09T12:24:00.836Z,35.70
2023-02-09T12:26:58.007Z,38.20
2023-02-09T12:29:46.672Z,33.90
2023-02-09T12:32:43.321Z,31.30
2023-02-09T12:35:42.363Z,29.20
2023-02-09T12:39:05.881Z,32.40
2023-02-09T12:42:28.017Z,30.80
2023-02-09T12:45:38.266Z,19.60
2023-02-09T12:48:31.376Z,15.60
2023-02-09T12:51:48.602Z,12.20
2023-02-09T12:54:45.248Z,13.40
2023-02-09T12:57:56.842Z,14.10
2023-02-09T13:01:01.094Z,12.60
2023-02-09T13:04:00.909Z,12.40
2023-02-09T13:06:58.943Z,8.80
2023-02-09T13:09:53.077Z,15.00
2023-02-09T13:12:35.772Z,12.60
2023-02-09T13:15:33.203Z,10.20
2023-02-09T13:18:36.129Z,13.20
2023-02-09T13:21:41.039Z,9.60
2023-02-09T13:24:45.386Z,10.00
2023-02-09T13:27:46.966Z,8.40
2023-02-09T13:30:39.132Z,8.80
2023-02-09T13:33:41.864Z,10.00
2023-02-09T13:36:43.200Z,8.00
2023-02-09T13:39:39.806Z,6.60
2023-02-09T13:42:37.364Z,8.10
2023-02-09T13:45:29.833Z,7.70
2023-02-09T13:48:28.362Z,6.50
2023-02-09T13:51:23.515Z,6.80
2023-02-09T13:54:21.174Z,8.40
2023-02-09T13:57:28.254Z,9.50
2023-02-09T14:00:25.877Z,8.10
2023-02-09T14:03:21.675Z,4.90
2023-02-09T14:09:04.140Z,5.00
2023-02-09T14:12:01.632Z,8.50
2023-02-09T14:14:57.552Z,6.50
2023-02-09T14:17:56.242Z,6.00
2023-02-09T14:21:01.706Z,8.80
2023-02-09T14:24:16.323Z,3.10
2023-02-09T14:26:55.159Z,7.40
2023-02-09T14:29:45.700Z,5.40
2023-02-09T14:32:37.326Z,4.70
2023-02-09T14:35:27.015Z,4.50
2023-02-09T14:38:39.868Z,5.90
2023-02-09T14:41:30.995Z,5.70
2023-02-09T14:44:23.989Z,8.90
2023-02-09T14:47:30.723Z,5.80
2023-02-09T14:50:24.928Z,7.10
2023-02-09T14:53:18.982Z,7.70
2023-02-09T14:56:23.776Z,5.60
2023-02-09T14:59:18.361Z,9.10
2023-02-09T15:01:55.509Z,8.80
2023-02-09T15:04:47.879Z,6.10
2023-02-09T15:07:43.126Z,5.60
2023-02-09T15:10:29.561Z,4.70
2023-02-09T15:13:23.069Z,11.30
2023-02-09T15:16:04.251Z,7.40
2023-02-09T15:18:56.463Z,9.20
2023-02-09T15:22:02.025Z,8.40
2023-02-09T15:24:58.659Z,8.00
2023-02-09T15:27:52.589Z,7.60
2023-02-09T15:30:45.202Z,8.20
2023-02-09T15:33:37.904Z,7.80
2023-02-09T15:36:30.233Z,5.80
2023-02-09T15:39:25.153Z,10.80
2023-02-09T15:42:37.462Z,7.50
2023-02-09T15:45:48.281Z,8.50
2023-02-09T15:48:40.333Z,11.30
2023-02-09T15:51:36.360Z,10.50
2023-02-09T15:54:33.577Z,7.80
2023-02-09T15:57:27.308Z,10.60
2023-02-09T16:00:21.499Z,9.80
2023-02-09T16:03:17.650Z,9.60
2023-02-09T16:06:18.306Z,14.40
2023-02-09T16:09:18.371Z,14.20
2023-02-09T16:12:01.482Z,11.10
2023-02-09T16:14:53.684Z,13.90
2023-02-09T16:17:30.560Z,17.30
2023-02-09T16:20:25.799Z,13.80
2023-02-09T16:23:20.178Z,14.90
2023-02-09T16:26:13.568Z,13.20
2023-02-09T16:29:07.108Z,14.20
2023-02-09T16:31:59.244Z,16.50
2023-02-09T16:34:51.745Z,18.20
2023-02-09T16:37:45.253Z,16.70
2023-02-09T16:40:31.254Z,20.40
2023-02-09T16:43:24.087Z,11.60
2023-02-09T16:46:16.248Z,17.00
2023-02-09T16:48:51.320Z,18.40
2023-02-09T16:51:43.639Z,22.80
2023-02-09T16:54:43.555Z,20.30
2023-02-09T16:57:20.230Z,24.40
2023-02-09T17:00:15.081Z,28.30
2023-02-09T17:03:15.082Z,25.50
2023-02-09T17:05:58.091Z,30.30
2023-02-09T17:08:51.011Z,37.30
2023-02-09T17:11:44.326Z,31.30
2023-02-09T17:14:36.569Z,24.50
2023-02-09T17:17:28.716Z,29.10
2023-02-09T17:20:15.477Z,30.30
2023-02-09T17:23:07.957Z,29.70
2023-02-09T17:25:56.895Z,27.10
2023-02-09T17:28:49.032Z,27.30
2023-02-09T17:31:53.172Z,30.00
2023-02-09T17:34:46.223Z,21.30
2023-02-09T17:37:38.440Z,24.20
2023-02-09T17:40:30.442Z,28.20
2023-02-09T17:43:22.786Z,24.10
2023-02-09T17:46:16.260Z,29.70
2023-02-09T17:48:51.161Z,30.70
2023-02-09T17:51:46.121Z,31.10
2023-02-09T17:54:38.351Z,27.00
2023-02-09T18:00:10.907Z,25.70
2023-02-09T18:03:03.262Z,24.90
2023-02-09T18:05:58.499Z,26.20
2023-02-09T18:08:50.900Z,30.70
2023-02-09T18:11:58.099Z,31.00
2023-02-09T18:14:50.208Z,33.50
2023-02-09T18:17:22.822Z,30.10
2023-02-09T18:20:20.904Z,30.20
2023-02-09T18:23:16.392Z,30.80
2023-02-09T18:26:08.936Z,35.10
2023-02-09T18:29:01.089Z,28.40
2023-02-09T18:31:53.508Z,29.40
2023-02-09T18:34:45.745Z,28.40
2023-02-09T18:37:38.200Z,38.30
2023-02-09T18:40:31.969Z,31.90
2023-02-09T18:43:24.016Z,27.40
2023-02-09T18:46:17.185Z,27.30
2023-02-09T18:49:03.168Z,31.70
2023-02-09T18:51:57.126Z,28.10
2023-02-09T18:54:49.219Z,25.40
2023-02-09T18:57:41.692Z,28.10
2023-02-09T19:00:34.631Z,23.70
2023-02-09T19:03:27.436Z,15.30
2023-02-09T19:06:27.145Z,24.20
2023-02-09T19:09:13.997Z,24.80
2023-02-09T19:12:09.916Z,26.30
2023-02-09T19:14:56.777Z,24.10
2023-02-09T19:17:36.803Z,16.90
2023-02-09T19:20:19.138Z,22.70
2023-02-09T19:23:14.555Z,20.20
2023-02-09T19:26:10.446Z,26.20
2023-02-09T19:28:45.653Z,20.20
2023-02-09T19:31:21.788Z,24.50
2023-02-09T19:34:26.079Z,25.60
2023-02-09T19:37:13.293Z,17.40
2023-02-09T19:40:17.626Z,22.50
2023-02-09T19:43:12.155Z,19.90
2023-02-09T19:46:05.716Z,17.10
2023-02-09T19:48:58.285Z,15.80
2023-02-09T19:51:46.264Z,15.40
2023-02-09T19:54:38.629Z,15.90
2023-02-09T19:57:15.824Z,14.10
2023-02-09T20:00:09.276Z,18.80
2023-02-09T20:03:01.413Z,20.60
2023-02-09T20:05:36.664Z,22.90
2023-02-09T20:08:28.977Z,15.90
2023-02-09T20:11:09.994Z,17.30
2023-02-09T20:14:02.360Z,20.80
2023-02-09T20:16:56.516Z,20.40
2023-02-09T20:19:48.592Z,16.20
2023-02-09T20:22:31.946Z,19.50
2023-02-09T20:25:04.042Z,23.60
2023-02-09T20:27:56.621Z,22.40
2023-02-09T20:30:49.134Z,26.00
2023-02-09T20:33:30.000Z,30.90
2023-02-09T20:36:24.530Z,27.80
2023-02-09T20:39:18.737Z,27.10
2023-02-09T20:42:19.238Z,26.10
2023-02-09T20:45:33.316Z,23.20
2023-02-09T20:48:25.444Z,25.10
2023-02-09T20:51:18.773Z,27.30
2023-02-09T20:54:11.107Z,24.80
2023-02-09T20:57:03.265Z,26.70
2023-02-09T20:59:55.427Z,24.70
2023-02-09T21:02:47.555Z,19.70
2023-02-09T21:05:39.783Z,25.90
2023-02-09T21:08:32.062Z,19.60
2023-02-09T21:11:30.180Z,19.10
2023-02-09T21:14:32.589Z,22.80
2023-02-09T21:17:12.877Z,20.60
2023-02-09T21:19:45.270Z,17.90
2023-02-09T21:22:20.605Z,23.70
2023-02-09T21:25:13.795Z,24.00
2023-02-09T21:28:06.258Z,22.40
2023-02-09T21:30:59.552Z,21.00
2023-02-09T21:33:51.764Z,22.00
2023-02-09T21:36:44.428Z,21.90
2023-02-09T21:39:36.678Z,23.30
2023-02-09T21:42:30.567Z,20.70
2023-02-09T21:45:22.853Z,25.70
2023-02-09T21:48:11.123Z,20.40
2023-02-09T21:51:04.077Z,15.60
2023-02-09T21:53:58.049Z,21.80
2023-02-09T21:56:50.652Z,21.90
2023-02-09T21:59:42.824Z,20.20
2023-02-09T22:02:34.971Z,24.00
2023-02-09T22:05:27.297Z,29.20
2023-02-09T22:08:19.599Z,64.40
2023-02-09T22:11:13.320Z,27.40
2023-02-09T22:14:05.729Z,22.00
2023-02-09T22:16:58.048Z,16.40
2023-02-09T22:19:50.326Z,18.50
2023-02-09T22:22:44.251Z,16.20
2023-02-09T22:25:22.584Z,20.70
2023-02-09T22:28:14.871Z,44.50
2023-02-09T22:31:12.232Z,36.00
2023-02-09T22:34:05.320Z,28.20
2023-02-09T22:36:57.706Z,75.70
2023-02-09T22:39:49.912Z,41.80
2023-02-09T22:42:42.197Z,20.70
2023-02-09T22:45:34.604Z,25.10
2023-02-09T22:48:26.941Z,23.40
2023-02-09T22:51:20.617Z,19.50
2023-02-09T22:54:15.288Z,22.10
2023-02-09T22:57:07.722Z,19.40
2023-02-09T23:00:00.002Z,17.30
2023-02-09T23:02:52.318Z,25.20
2023-02-09T23:05:44.497Z,34.10
2023-02-09T23:08:25.796Z,26.70
2023-02-09T23:11:19.191Z,29.40
2023-02-09T23:14:12.775Z,17.30
2023-02-09T23:17:05.002Z,20.70
2023-02-09T23:19:57.356Z,19.60
2023-02-09T23:22:40.172Z,20.40
2023-02-09T23:25:32.524Z,21.60
2023-02-09T23:28:25.228Z,18.30
2023-02-09T23:31:20.860Z,16.30
2023-02-09T23:34:16.622Z,13.00
2023-02-09T23:37:18.392Z,21.20
2023-02-09T23:40:03.398Z,23.60
2023-02-09T23:42:55.647Z,30.60
2023-02-09T23:45:30.086Z,28.90
2023-02-09T23:48:22.290Z,15.90
2023-02-09T23:51:18.342Z,16.20
2023-02-09T23:54:11.563Z,6.90
2023-02-09T23:57:03.808Z,15.70
2023-02-09T23:59:55.990Z,12.30
